Time;durP1;ratioP1;P1;durP2;ratioP2;P2;SDS_P1;SDS_P2;PMS_P1;PMS_P2;Temp;Humidity;BMP_temperature;BMP_pressure;BME280_temperature;BME280_humidity;BME280_pressure;Samples;Min_cycle;Max_cycle;Signal;HPM_P1;HPM_P2
2021/07/29 00:01:18;;;;;;;2.63;2.13;;;18.90;99.90;;;;;;5094031;28;20448;-71
2021/07/29 00:03:45;;;;;;;2.20;1.90;;;18.90;99.90;;;;;;5094155;28;20201;-71
2021/07/29 00:06:16;;;;;;;2.20;1.90;;;19.00;99.90;;;;;;5093781;28;20230;-72
2021/07/29 00:08:44;;;;;;;2.40;1.80;;;19.10;99.90;;;;;;5094361;28;20210;-73
2021/07/29 00:11:12;;;;;;;2.22;2.05;;;19.10;99.90;;;;;;5093914;28;20199;-72
2021/07/29 00:13:39;;;;;;;2.38;2.05;;;19.00;99.90;;;;;;5093862;28;20222;-73
2021/07/29 00:16:06;;;;;;;2.40;2.20;;;19.00;99.90;;;;;;5083257;28;20599;-72
2021/07/29 00:21:17;;;;;;;2.20;2.00;;;19.00;99.90;;;;;;5082578;28;20683;-72
2021/07/29 00:23:47;;;;;;;2.83;2.53;;;19.00;99.90;;;;;;5095073;28;20289;-71
2021/07/29 00:26:14;;;;;;;2.53;2.20;;;19.00;99.90;;;;;;5095165;28;20303;-72
2021/07/29 00:28:41;;;;;;;1.90;1.77;;;19.10;99.90;;;;;;5095600;28;20448;-72
2021/07/29 00:31:08;;;;;;;2.20;2.00;;;19.10;99.90;;;;;;5095501;28;20205;-72
2021/07/29 00:33:35;;;;;;;2.93;2.30;;;19.20;99.90;;;;;;5094852;28;20473;-72
2021/07/29 00:36:01;;;;;;;2.40;2.20;;;19.10;99.90;;;;;;5094846;28;20787;-72
2021/07/29 00:38:28;;;;;;;2.92;2.10;;;19.10;99.90;;;;;;5095421;28;20199;-72
2021/07/29 00:40:57;;;;;;;2.50;2.30;;;19.00;99.90;;;;;;5095306;28;20297;-72
2021/07/29 00:43:23;;;;;;;2.70;2.30;;;19.00;99.90;;;;;;5094716;28;20575;-72
2021/07/29 00:45:50;;;;;;;3.05;2.30;;;19.00;99.90;;;;;;5094390;28;20297;-72
2021/07/29 00:48:19;;;;;;;2.40;2.17;;;19.00;99.90;;;;;;5095049;28;20279;-72
2021/07/29 00:50:46;;;;;;;3.85;2.65;;;18.90;99.90;;;;;;5094812;28;20294;-72
2021/07/29 00:53:13;;;;;;;2.42;2.22;;;18.90;99.90;;;;;;5094954;28;20205;-72
2021/07/29 00:55:40;;;;;;;2.22;2.03;;;18.80;99.90;;;;;;5094463;28;20206;-72
2021/07/29 00:58:08;;;;;;;3.00;2.38;;;18.70;99.90;;;;;;5094811;28;20222;-72
2021/07/29 01:00:35;;;;;;;2.92;2.47;;;18.70;99.90;;;;;;5094638;28;20202;-72
2021/07/29 01:03:02;;;;;;;2.33;2.05;;;18.60;99.90;;;;;;5094691;28;20210;-72
2021/07/29 01:05:29;;;;;;;2.33;2.13;;;18.60;99.90;;;;;;5094159;28;20761;-72
2021/07/29 01:07:55;;;;;;;3.30;2.60;;;18.50;99.90;;;;;;5094964;28;20222;-72
2021/07/29 01:10:23;;;;;;;2.30;2.10;;;18.50;99.90;;;;;;5094721;28;20655;-72
2021/07/29 01:12:49;;;;;;;2.67;1.83;;;18.50;99.90;;;;;;5094747;28;20206;-72
2021/07/29 01:15:18;;;;;;;2.60;1.90;;;18.50;99.90;;;;;;5094022;28;20221;-72
2021/07/29 01:17:44;;;;;;;3.25;2.47;;;18.50;99.90;;;;;;5094662;28;20565;-72
2021/07/29 01:20:19;;;;;;;2.50;2.23;;;18.40;99.90;;;;;;5094516;28;20292;-72
2021/07/29 01:22:46;;;;;;;3.63;2.37;;;18.40;99.90;;;;;;5094623;28;20440;-72
2021/07/29 01:25:13;;;;;;;3.37;2.47;;;18.40;99.90;;;;;;5094297;28;21001;-72
2021/07/29 01:27:40;;;;;;;2.53;2.33;;;18.30;99.90;;;;;;5094179;28;20472;-72
2021/07/29 01:30:07;;;;;;;2.50;2.30;;;18.30;99.90;;;;;;5093728;28;20444;-72
2021/07/29 01:32:36;;;;;;;2.97;2.45;;;18.20;99.90;;;;;;5094298;28;20204;-72
2021/07/29 01:35:03;;;;;;;2.70;2.50;;;18.20;99.90;;;;;;5093975;28;20321;-72
2021/07/29 01:37:31;;;;;;;2.17;1.98;;;18.20;99.90;;;;;;5093745;28;20252;-72
2021/07/29 01:39:58;;;;;;;2.80;2.20;;;18.20;99.90;;;;;;5094646;28;20208;-72
2021/07/29 01:42:25;;;;;;;2.50;2.30;;;18.20;99.90;;;;;;5093548;28;20300;-72
2021/07/29 01:44:52;;;;;;;3.80;2.70;;;18.20;99.90;;;;;;5093876;28;20849;-73
2021/07/29 01:47:19;;;;;;;3.53;2.65;;;18.20;99.90;;;;;;5093965;28;20304;-72
2021/07/29 01:49:45;;;;;;;2.50;2.30;;;18.20;99.90;;;;;;5094214;28;20583;-72
2021/07/29 01:52:12;;;;;;;2.40;2.20;;;18.10;99.90;;;;;;5094179;28;20671;-72
2021/07/29 01:54:40;;;;;;;3.33;2.50;;;18.10;99.90;;;;;;5093695;28;20620;-72
2021/07/29 01:57:08;;;;;;;2.42;2.22;;;18.10;99.90;;;;;;5093777;28;20317;-72
2021/07/29 01:59:36;;;;;;;2.53;2.33;;;18.10;99.90;;;;;;5093779;28;20259;-72
2021/07/29 02:02:06;;;;;;;3.10;2.80;;;18.10;99.90;;;;;;5093952;28;20547;-72
2021/07/29 02:04:34;;;;;;;2.92;2.60;;;18.00;99.90;;;;;;5094121;28;20620;-72
2021/07/29 02:07:01;;;;;;;3.22;2.50;;;17.90;99.90;;;;;;5093539;28;20605;-72
2021/07/29 02:09:27;;;;;;;3.50;2.95;;;17.90;99.90;;;;;;5093817;28;20206;-72
2021/07/29 02:11:56;;;;;;;3.15;2.83;;;17.90;99.90;;;;;;5093827;28;20212;-72
2021/07/29 02:14:24;;;;;;;2.90;2.70;;;17.90;99.90;;;;;;5093776;28;20225;-72
2021/07/29 02:16:51;;;;;;;3.50;2.90;;;17.80;99.90;;;;;;5093485;28;20226;-72
2021/07/29 02:19:17;;;;;;;3.53;2.70;;;17.80;99.90;;;;;;5094223;28;20201;-72
2021/07/29 02:21:44;;;;;;;3.30;2.88;;;17.80;99.90;;;;;;5093287;28;20670;-72
2021/07/29 02:24:12;;;;;;;3.33;2.47;;;17.80;99.90;;;;;;5093441;28;20202;-72
2021/07/29 02:26:39;;;;;;;3.00;2.70;;;17.80;99.90;;;;;;5093510;28;20287;-72
2021/07/29 02:29:07;;;;;;;3.35;2.80;;;17.80;99.90;;;;;;5093996;28;20202;-72
2021/07/29 02:31:34;;;;;;;3.33;2.75;;;17.80;99.90;;;;;;5093816;28;20543;-72
2021/07/29 02:34:00;;;;;;;3.65;2.85;;;17.80;99.90;;;;;;5093815;28;20226;-72
2021/07/29 02:36:27;;;;;;;3.63;3.00;;;17.90;99.90;;;;;;5093063;28;20704;-72
2021/07/29 02:38:54;;;;;;;3.72;3.20;;;17.90;99.90;;;;;;5093516;28;20198;-72
2021/07/29 02:41:21;;;;;;;3.60;3.10;;;17.80;99.90;;;;;;5093374;28;20297;-72
2021/07/29 02:43:48;;;;;;;4.30;3.17;;;17.80;99.90;;;;;;5096735;28;20218;-72
2021/07/29 02:46:16;;;;;;;3.20;2.90;;;17.80;99.90;;;;;;5096737;28;20264;-72
2021/07/29 02:48:43;;;;;;;3.92;2.63;;;17.80;99.90;;;;;;5097814;28;20212;-72
2021/07/29 02:51:09;;;;;;;4.85;3.10;;;17.70;99.90;;;;;;5097001;28;20559;-72
2021/07/29 02:53:36;;;;;;;3.65;3.03;;;17.70;99.90;;;;;;5097156;28;20620;-72
2021/07/29 02:56:05;;;;;;;3.58;3.17;;;17.60;99.90;;;;;;5096698;28;20315;-72
2021/07/29 02:58:32;;;;;;;3.05;2.85;;;17.50;99.90;;;;;;5097094;28;20213;-72
2021/07/29 03:00:59;;;;;;;4.45;3.03;;;17.40;99.90;;;;;;5097292;28;20198;-72
2021/07/29 03:03:27;;;;;;;3.13;2.80;;;17.40;99.90;;;;;;5096907;28;20540;-72
2021/07/29 03:05:54;;;;;;;4.50;3.30;;;17.40;99.90;;;;;;5096703;28;20198;-72
2021/07/29 03:08:21;;;;;;;3.92;3.03;;;17.40;99.90;;;;;;5096819;28;20213;-72
2021/07/29 03:10:48;;;;;;;4.65;3.25;;;17.40;99.90;;;;;;5096989;28;20202;-72
2021/07/29 03:13:16;;;;;;;3.45;3.15;;;17.40;99.90;;;;;;5097029;28;20202;-72
2021/07/29 03:15:43;;;;;;;5.30;3.85;;;17.40;99.90;;;;;;5096404;28;20695;-72
2021/07/29 03:18:10;;;;;;;3.33;3.03;;;17.40;99.90;;;;;;5096664;28;20308;-73
2021/07/29 03:20:40;;;;;;;3.92;3.38;;;17.40;99.90;;;;;;5096663;28;20233;-72
2021/07/29 03:23:07;;;;;;;3.33;2.90;;;17.40;99.90;;;;;;5096567;28;20288;-72
2021/07/29 03:25:34;;;;;;;3.60;3.08;;;17.40;99.90;;;;;;5096314;28;20229;-72
2021/07/29 03:28:01;;;;;;;2.75;2.50;;;17.40;99.90;;;;;;5097036;28;20229;-72
2021/07/29 03:30:28;;;;;;;3.22;3.03;;;17.50;99.90;;;;;;5096256;28;20219;-72
2021/07/29 03:32:55;;;;;;;3.03;2.83;;;17.50;99.90;;;;;;5096198;28;20706;-72
2021/07/29 03:35:22;;;;;;;3.40;2.90;;;17.50;99.90;;;;;;5096053;28;20225;-72
2021/07/29 03:37:50;;;;;;;4.40;3.47;;;17.50;99.90;;;;;;5096354;28;20226;-72
2021/07/29 03:40:17;;;;;;;2.97;2.72;;;17.50;99.90;;;;;;5096508;28;20202;-72
2021/07/29 03:42:44;;;;;;;3.13;2.83;;;17.50;99.90;;;;;;5096137;28;20297;-72
2021/07/29 03:45:12;;;;;;;3.83;3.13;;;17.50;99.90;;;;;;5095835;28;20213;-73
2021/07/29 03:47:39;;;;;;;3.35;3.05;;;17.60;99.90;;;;;;5096229;28;20316;-73
2021/07/29 03:50:07;;;;;;;4.03;3.03;;;17.60;99.90;;;;;;5096191;28;20198;-73
2021/07/29 03:52:36;;;;;;;5.32;3.47;;;17.70;99.90;;;;;;5095899;28;20237;-73
2021/07/29 03:55:06;;;;;;;3.38;2.95;;;17.70;99.90;;;;;;5095846;28;20217;-72
2021/07/29 03:57:33;;;;;;;3.65;3.25;;;17.80;99.90;;;;;;5095627;28;20248;-72
2021/07/29 04:00:01;;;;;;;4.22;3.28;;;17.80;99.90;;;;;;5095852;28;20210;-72
2021/07/29 04:02:28;;;;;;;3.20;2.90;;;17.70;99.90;;;;;;5095930;28;20255;-72
2021/07/29 04:04:54;;;;;;;3.97;3.17;;;17.70;99.90;;;;;;5095423;28;20204;-72
2021/07/29 04:07:21;;;;;;;3.88;3.47;;;17.70;99.90;;;;;;5095945;28;20232;-72
2021/07/29 04:09:48;;;;;;;3.55;2.90;;;17.70;99.90;;;;;;5096293;28;20208;-72
2021/07/29 04:12:16;;;;;;;3.30;3.00;;;17.70;99.90;;;;;;5095588;28;20198;-72
2021/07/29 04:14:43;;;;;;;3.20;2.90;;;17.60;99.90;;;;;;5095531;28;20218;-73
2021/07/29 04:17:10;;;;;;;3.20;2.90;;;17.60;99.90;;;;;;5095799;28;20309;-72
2021/07/29 04:19:38;;;;;;;3.53;2.85;;;17.60;99.90;;;;;;5095709;28;20208;-72
2021/07/29 04:22:07;;;;;;;3.08;2.78;;;17.60;99.90;;;;;;5095687;28;20672;-72
2021/07/29 04:24:34;;;;;;;3.50;3.20;;;17.60;99.90;;;;;;5095689;28;20285;-72
2021/07/29 04:27:02;;;;;;;4.00;3.08;;;17.60;99.90;;;;;;5095248;28;20228;-72
2021/07/29 04:29:32;;;;;;;4.97;3.50;;;17.60;99.90;;;;;;5095366;28;20202;-72
2021/07/29 04:31:59;;;;;;;3.00;2.80;;;17.70;99.90;;;;;;5095438;28;20244;-72
2021/07/29 04:34:26;;;;;;;3.72;3.17;;;17.70;99.90;;;;;;5095421;28;20563;-72
2021/07/29 04:36:53;;;;;;;3.88;3.58;;;17.70;99.90;;;;;;5094538;28;20222;-72
2021/07/29 04:39:20;;;;;;;3.88;3.28;;;17.70;99.90;;;;;;5095060;28;20208;-72
2021/07/29 04:41:47;;;;;;;4.55;3.50;;;17.80;99.90;;;;;;5095115;28;20229;-72
2021/07/29 04:44:15;;;;;;;4.82;3.50;;;17.80;99.90;;;;;;5094938;28;20212;-73
2021/07/29 04:46:44;;;;;;;4.20;3.80;;;17.90;99.90;;;;;;5094635;28;20257;-73
2021/07/29 04:49:23;;;;;;;5.60;3.58;;;17.80;99.90;;;;;;5094903;28;20198;-72
2021/07/29 04:51:50;;;;;;;4.65;4.10;;;17.80;99.90;;;;;;5094890;28;20597;-72
2021/07/29 04:54:16;;;;;;;5.78;3.95;;;17.70;99.90;;;;;;5094759;28;20663;-72
2021/07/29 04:56:43;;;;;;;4.20;3.55;;;17.60;99.90;;;;;;5094508;28;20218;-72
2021/07/29 04:59:10;;;;;;;4.93;3.50;;;17.70;99.90;;;;;;5095127;28;20202;-72
2021/07/29 05:01:38;;;;;;;5.20;3.97;;;17.80;99.90;;;;;;5094878;28;20198;-72
2021/07/29 05:04:06;;;;;;;4.43;3.15;;;17.80;99.90;;;;;;5094861;28;20233;-72
2021/07/29 05:06:38;;;;;;;3.47;2.97;;;17.80;99.90;;;;;;5093523;28;20305;-72
2021/07/29 05:09:05;;;;;;;3.88;3.17;;;17.80;99.90;;;;;;5094647;28;20664;-71
2021/07/29 05:11:32;;;;;;;4.00;3.45;;;17.90;99.90;;;;;;5094663;28;20212;-72
2021/07/29 05:13:58;;;;;;;3.15;2.85;;;17.90;99.90;;;;;;5094329;28;20198;-72
2021/07/29 05:16:25;;;;;;;3.63;3.05;;;18.00;99.90;;;;;;5093875;28;20240;-72
2021/07/29 05:18:52;;;;;;;2.60;2.40;;;18.10;99.90;;;;;;5094337;28;20209;-72
2021/07/29 05:21:20;;;;;;;3.55;2.90;;;18.20;99.90;;;;;;5094438;28;20202;-72
2021/07/29 05:23:48;;;;;;;3.45;3.05;;;18.30;99.90;;;;;;5094576;28;20289;-72
2021/07/29 05:26:16;;;;;;;3.38;2.45;;;18.30;99.90;;;;;;5094126;28;20283;-72
2021/07/29 05:28:43;;;;;;;2.55;2.35;;;18.40;99.90;;;;;;5095051;28;20206;-72
2021/07/29 05:31:10;;;;;;;2.53;2.25;;;18.50;99.90;;;;;;5094602;28;20544;-72
2021/07/29 05:33:37;;;;;;;2.63;2.08;;;18.60;99.90;;;;;;5094383;28;20280;-72
2021/07/29 05:36:05;;;;;;;8.13;6.10;;;18.70;99.90;;;;;;5093757;28;20687;-72
2021/07/29 05:38:33;;;;;;;2.80;2.37;;;18.80;99.90;;;;;;5094294;28;20268;-72
2021/07/29 05:41:04;;;;;;;3.42;2.55;;;18.80;99.90;;;;;;5094176;28;20535;-72
2021/07/29 05:43:32;;;;;;;4.20;2.75;;;18.90;99.90;;;;;;5093558;28;20214;-72
2021/07/29 05:45:59;;;;;;;3.17;2.53;;;19.00;99.90;;;;;;5093775;28;20197;-72
2021/07/29 05:48:25;;;;;;;2.40;2.20;;;19.10;99.90;;;;;;5094047;28;20473;-72
2021/07/29 05:50:56;;;;;;;2.47;2.28;;;19.10;99.90;;;;;;5094143;28;20531;-72
2021/07/29 05:53:23;;;;;;;2.93;2.30;;;19.10;99.90;;;;;;5093698;28;20690;-72
2021/07/29 05:55:52;;;;;;;8.98;6.30;;;19.10;99.90;;;;;;5093584;28;20480;-72
2021/07/29 05:58:19;;;;;;;2.57;2.37;;;19.10;99.90;;;;;;5094534;28;20308;-72
2021/07/29 06:00:46;;;;;;;2.63;2.43;;;19.20;99.90;;;;;;5093875;28;20487;-72
2021/07/29 06:03:13;;;;;;;2.58;2.30;;;19.30;99.90;;;;;;5093736;28;20998;-72
2021/07/29 06:05:40;;;;;;;2.30;2.10;;;19.40;99.90;;;;;;5093533;28;20632;-71
2021/07/29 06:08:07;;;;;;;2.40;2.20;;;19.40;99.90;;;;;;5093864;28;20309;-72
2021/07/29 06:10:34;;;;;;;2.80;2.03;;;19.50;99.90;;;;;;5094228;28;20451;-72
2021/07/29 06:13:03;;;;;;;2.10;1.90;;;19.60;99.90;;;;;;5093652;28;20532;-73
2021/07/29 06:15:29;;;;;;;3.10;2.90;;;19.60;99.90;;;;;;5093414;28;20482;-72
2021/07/29 06:17:58;;;;;;;2.63;2.43;;;19.70;99.90;;;;;;5053019;22;20581;-71
2021/07/29 06:20:25;;;;;;;10.10;5.00;;;19.80;99.90;;;;;;5037676;28;20506;-71
2021/07/29 06:22:52;;;;;;;2.40;2.13;;;19.80;99.90;;;;;;5037212;28;20927;-71
2021/07/29 06:25:19;;;;;;;2.67;2.47;;;19.80;99.90;;;;;;5037039;28;20539;-71
2021/07/29 06:27:47;;;;;;;2.30;2.10;;;19.90;99.90;;;;;;5037383;28;20480;-71
2021/07/29 06:30:16;;;;;;;3.17;2.93;;;19.90;99.90;;;;;;5037720;28;20459;-72
2021/07/29 06:32:42;;;;;;;2.80;2.40;;;19.90;99.90;;;;;;5037474;28;20448;-71
2021/07/29 06:35:10;;;;;;;2.30;1.97;;;20.00;99.90;;;;;;5037164;28;20579;-71
2021/07/29 06:37:37;;;;;;;4.23;2.10;;;20.00;99.90;;;;;;5037534;28;20548;-71
2021/07/29 06:40:05;;;;;;;3.00;2.33;;;20.10;99.90;;;;;;5037134;28;20452;-72
2021/07/29 06:42:32;;;;;;;2.53;2.33;;;20.20;99.90;;;;;;5037137;28;20796;-72
2021/07/29 06:44:59;;;;;;;2.03;1.90;;;20.20;99.90;;;;;;5036950;28;20535;-71
2021/07/29 06:47:27;;;;;;;2.80;2.53;;;20.30;99.90;;;;;;5037320;28;20480;-71
2021/07/29 06:49:54;;;;;;;3.10;2.80;;;20.40;99.90;;;;;;5037250;28;20536;-71
2021/07/29 06:52:21;;;;;;;2.63;2.43;;;20.50;99.90;;;;;;5037273;28;20537;-71
2021/07/29 06:54:48;;;;;;;4.97;2.27;;;20.60;99.90;;;;;;5036474;28;20984;-71
2021/07/29 06:57:15;;;;;;;6.10;4.37;;;20.60;99.90;;;;;;5036880;28;20515;-71
2021/07/29 06:59:42;;;;;;;3.20;2.23;;;20.50;99.90;;;;;;5036829;28;20437;-71
2021/07/29 07:02:10;;;;;;;2.50;2.30;;;20.50;99.90;;;;;;5036320;28;21037;-71
2021/07/29 07:04:38;;;;;;;2.50;2.30;;;20.60;99.90;;;;;;5037040;28;20836;-71
2021/07/29 07:07:05;;;;;;;2.80;2.60;;;20.60;99.90;;;;;;5036545;28;20466;-72
2021/07/29 07:09:32;;;;;;;2.40;2.10;;;20.60;99.90;;;;;;5036687;28;20866;-72
2021/07/29 07:11:58;;;;;;;3.20;2.57;;;20.60;99.90;;;;;;5036707;28;20537;-72
2021/07/29 07:14:25;;;;;;;3.50;2.53;;;20.70;99.90;;;;;;5036733;28;20452;-72
2021/07/29 07:16:52;;;;;;;2.20;2.00;;;20.70;99.90;;;;;;5035773;28;21089;-72
2021/07/29 07:19:20;;;;;;;2.80;2.60;;;20.80;99.90;;;;;;5029911;28;21045;-72
2021/07/29 07:21:48;;;;;;;2.60;2.37;;;20.80;99.90;;;;;;5032834;28;20512;-72
2021/07/29 07:24:15;;;;;;;3.07;2.47;;;20.90;99.90;;;;;;5035284;28;20553;-72
2021/07/29 07:26:42;;;;;;;2.90;2.70;;;21.00;99.90;;;;;;5034896;28;20466;-72
2021/07/29 07:29:09;;;;;;;2.53;2.30;;;21.10;99.90;;;;;;5034486;28;20454;-72
2021/07/29 07:31:35;;;;;;;2.80;2.37;;;21.20;99.90;;;;;;5035169;28;20544;-71
2021/07/29 07:34:02;;;;;;;3.03;2.40;;;21.20;99.90;;;;;;5034812;28;20458;-71
2021/07/29 07:36:29;;;;;;;2.63;2.40;;;21.20;99.90;;;;;;5034799;28;20494;-72
2021/07/29 07:38:57;;;;;;;3.13;2.83;;;21.20;99.90;;;;;;5035080;28;20530;-71
2021/07/29 07:41:24;;;;;;;3.50;3.20;;;21.30;99.90;;;;;;5034974;28;20449;-72
2021/07/29 07:43:51;;;;;;;2.47;2.27;;;21.50;99.90;;;;;;5034515;28;20457;-72
2021/07/29 07:46:18;;;;;;;2.17;1.97;;;21.40;99.90;;;;;;5034290;28;20990;-72
2021/07/29 07:48:46;;;;;;;2.53;2.37;;;21.50;99.90;;;;;;5034716;28;20532;-71
2021/07/29 07:51:12;;;;;;;2.53;2.33;;;21.60;99.90;;;;;;5035048;28;20462;-73
2021/07/29 07:53:39;;;;;;;3.10;2.80;;;21.80;99.90;;;;;;5034507;28;20546;-71
2021/07/29 07:56:07;;;;;;;2.90;2.70;;;22.00;99.90;;;;;;5034124;28;20570;-72
2021/07/29 07:58:34;;;;;;;2.47;2.27;;;22.20;99.90;;;;;;5034513;28;20554;-73
2021/07/29 08:01:03;;;;;;;2.50;2.23;;;22.30;99.90;;;;;;5035975;28;20439;-73
2021/07/29 08:03:30;;;;;;;2.53;2.33;;;22.20;99.90;;;;;;5035285;28;20542;-73
2021/07/29 08:05:57;;;;;;;2.50;2.30;;;22.10;99.90;;;;;;5035332;28;20481;-73
2021/07/29 08:08:23;;;;;;;2.60;2.40;;;22.30;99.90;;;;;;5035811;28;20838;-73
2021/07/29 08:10:52;;;;;;;2.33;2.13;;;22.60;99.90;;;;;;5035682;28;20777;-74
2021/07/29 08:13:20;;;;;;;2.00;1.80;;;23.90;99.00;;;;;;5035916;28;20763;-73
2021/07/29 08:15:47;;;;;;;2.90;2.60;;;25.60;96.80;;;;;;5035178;28;20565;-73
2021/07/29 08:18:15;;;;;;;2.47;2.27;;;27.30;92.70;;;;;;5035103;28;20457;-73
2021/07/29 08:20:42;;;;;;;2.90;2.60;;;28.50;87.40;;;;;;5035163;28;20455;-74
2021/07/29 08:23:09;;;;;;;2.33;2.13;;;28.80;82.20;;;;;;5035116;28;20442;-74
2021/07/29 08:25:36;;;;;;;2.27;2.07;;;29.30;77.20;;;;;;5035011;28;20537;-74
2021/07/29 08:28:05;;;;;;;2.60;2.40;;;29.50;76.20;;;;;;5035692;28;20480;-74
2021/07/29 08:30:34;;;;;;;2.73;2.27;;;29.50;74.80;;;;;;5035148;28;20453;-74
2021/07/29 08:33:08;;;;;;;2.53;2.33;;;29.40;75.20;;;;;;5035322;28;20440;-74
2021/07/29 08:35:36;;;;;;;2.50;2.30;;;29.10;72.30;;;;;;5034665;28;20466;-74
2021/07/29 08:38:03;;;;;;;2.57;2.37;;;28.70;72.80;;;;;;5035387;28;20476;-74
2021/07/29 08:40:30;;;;;;;2.70;2.50;;;29.30;72.90;;;;;;5035145;28;20443;-74
2021/07/29 08:42:58;;;;;;;2.90;2.50;;;30.60;70.10;;;;;;5035239;28;20551;-74
2021/07/29 08:45:26;;;;;;;2.53;2.33;;;31.80;62.90;;;;;;5034318;28;20449;-74
2021/07/29 08:47:57;;;;;;;2.87;2.63;;;32.60;59.60;;;;;;5034769;28;20475;-75
2021/07/29 08:50:24;;;;;;;2.73;2.40;;;33.30;56.60;;;;;;5034774;28;20463;-75
2021/07/29 08:52:51;;;;;;;2.47;2.27;;;33.70;53.80;;;;;;5034856;28;20450;-74
2021/07/29 08:55:18;;;;;;;2.50;2.30;;;34.30;53.60;;;;;;5034677;28;20455;-74
2021/07/29 08:57:45;;;;;;;2.50;2.30;;;35.20;51.30;;;;;;5034370;28;20848;-74
2021/07/29 09:00:14;;;;;;;2.47;2.27;;;35.30;48.70;;;;;;5034418;28;20449;-74
2021/07/29 09:02:40;;;;;;;3.40;3.20;;;34.50;49.50;;;;;;5034665;28;20443;-74
2021/07/29 09:05:11;;;;;;;3.63;3.33;;;33.40;48.10;;;;;;5034402;28;20544;-74
2021/07/29 09:07:39;;;;;;;2.80;2.60;;;32.90;51.10;;;;;;5034120;28;20886;-75
2021/07/29 09:10:20;;;;;;;2.63;2.43;;;32.90;50.20;;;;;;5034009;28;20945;-74
2021/07/29 09:13:05;;;;;;;2.97;2.67;;;31.60;50.60;;;;;;5034414;28;20449;-74
2021/07/29 09:15:32;;;;;;;2.63;2.43;;;30.80;52.60;;;;;;5034143;28;20450;-73
2021/07/29 09:17:59;;;;;;;2.70;2.50;;;30.60;56.40;;;;;;5034584;28;20563;-74
2021/07/29 09:20:27;;;;;;;3.00;2.70;;;30.80;53.50;;;;;;5034476;28;20449;-74
2021/07/29 09:22:54;;;;;;;3.17;2.97;;;31.30;54.50;;;;;;5034161;28;20437;-74
2021/07/29 09:25:24;;;;;;;2.90;2.70;;;32.60;52.00;;;;;;5033865;28;20446;-74
2021/07/29 09:27:52;;;;;;;2.87;2.63;;;33.50;49.50;;;;;;5034265;28;20470;-74
2021/07/29 09:30:21;;;;;;;2.40;2.20;;;33.20;49.00;;;;;;5034358;28;20442;-74
2021/07/29 09:32:53;;;;;;;2.73;2.53;;;33.40;48.50;;;;;;5034277;28;20929;-75
2021/07/29 09:35:42;;;;;;;2.77;2.57;;;33.20;49.50;;;;;;5033581;28;20486;-75
2021/07/29 09:38:13;;;;;;;2.20;2.10;;;33.00;49.40;;;;;;5034428;28;20494;-75
2021/07/29 09:40:44;;;;;;;2.80;2.60;;;32.60;49.30;;;;;;5034361;28;20919;-75
2021/07/29 09:43:14;;;;;;;2.90;2.70;;;31.60;50.60;;;;;;5034206;28;20445;-75
2021/07/29 09:45:42;;;;;;;2.90;2.50;;;31.00;51.50;;;;;;5033749;28;20442;-75
2021/07/29 09:48:10;;;;;;;3.27;2.50;;;29.60;53.80;;;;;;5033979;28;20467;-75
2021/07/29 09:50:40;;;;;;;3.20;2.90;;;29.30;54.50;;;;;;5033502;28;20540;-75
2021/07/29 09:53:08;;;;;;;3.00;2.70;;;28.50;55.90;;;;;;5033982;28;20465;-74
2021/07/29 09:55:35;;;;;;;2.80;2.50;;;27.90;57.20;;;;;;5033795;28;20451;-75
2021/07/29 09:58:02;;;;;;;3.77;3.47;;;27.40;56.90;;;;;;5033460;28;20518;-75
2021/07/29 10:00:29;;;;;;;4.07;3.20;;;26.80;58.30;;;;;;5033707;28;20453;-74
2021/07/29 10:02:57;;;;;;;2.83;2.53;;;26.50;60.20;;;;;;5033779;28;20517;-75
2021/07/29 10:05:28;;;;;;;2.97;2.67;;;27.70;61.00;;;;;;5033388;28;20477;-75
2021/07/29 10:08:00;;;;;;;3.03;2.73;;;29.60;56.10;;;;;;5034228;28;20805;-75
2021/07/29 10:10:30;;;;;;;3.40;2.80;;;31.10;52.90;;;;;;5034006;28;20558;-75
2021/07/29 10:12:57;;;;;;;2.90;2.70;;;32.70;50.20;;;;;;5033592;28;20802;-75
2021/07/29 10:15:40;;;;;;;3.17;2.97;;;33.70;47.50;;;;;;5033077;28;20454;-75
2021/07/29 10:18:08;;;;;;;3.10;2.67;;;32.50;48.50;;;;;;5033717;28;20492;-76
2021/07/29 10:20:37;;;;;;;3.00;2.80;;;31.60;49.30;;;;;;5033885;28;20445;-74
2021/07/29 10:23:31;;;;;;;3.10;2.80;;;31.80;49.60;;;;;;5033252;28;20856;-75
2021/07/29 10:26:07;;;;;;;3.57;3.27;;;32.40;48.10;;;;;;5033145;28;20525;-75
2021/07/29 10:28:41;;;;;;;2.90;2.70;;;33.20;48.90;;;;;;5033687;28;20900;-75
2021/07/29 10:31:12;;;;;;;2.90;2.70;;;34.30;46.30;;;;;;5033716;28;20530;-75
2021/07/29 10:33:39;;;;;;;3.20;2.90;;;34.50;47.10;;;;;;5033197;28;20442;-75
2021/07/29 10:36:08;;;;;;;3.37;3.13;;;35.20;45.80;;;;;;5032952;28;20489;-75
2021/07/29 10:38:50;;;;;;;3.20;3.00;;;35.90;42.40;;;;;;5033672;28;20443;-75
2021/07/29 10:41:53;;;;;;;3.90;3.10;;;36.50;41.50;;;;;;5033642;28;20454;-75
2021/07/29 10:44:45;;;;;;;3.40;3.10;;;36.70;40.50;;;;;;4953137;29;20441;-75
2021/07/29 10:47:17;;;;;;;3.60;3.30;;;36.80;40.90;;;;;;5030863;28;20887;-75
2021/07/29 10:50:12;;;;;;;2.90;2.70;;;36.80;39.80;;;;;;5033877;28;20435;-75
2021/07/29 10:52:39;;;;;;;3.60;3.30;;;35.60;41.30;;;;;;5033116;28;20962;-75
2021/07/29 10:55:10;;;;;;;3.37;3.10;;;35.10;41.00;;;;;;5032988;28;20533;-74
2021/07/29 10:57:39;;;;;;;3.53;3.23;;;34.40;42.60;;;;;;5033548;28;20490;-75
2021/07/29 11:00:07;;;;;;;2.50;2.30;;;34.00;44.30;;;;;;5033431;28;20451;-75
2021/07/29 11:02:40;;;;;;;3.30;3.00;;;34.00;44.90;;;;;;5033271;28;20443;-74
2021/07/29 11:05:09;;;;;;;3.63;3.33;;;32.80;45.80;;;;;;5036516;28;20816;-75
2021/07/29 11:07:41;;;;;;;3.93;3.63;;;31.90;46.70;;;;;;5036930;28;20797;-74
2021/07/29 11:10:10;;;;;;;3.70;3.33;;;30.70;48.00;;;;;;5036751;28;20458;-74
2021/07/29 11:12:39;;;;;;;4.00;3.60;;;29.80;49.60;;;;;;5036357;28;20928;-75
2021/07/29 11:15:08;;;;;;;3.50;3.13;;;29.00;52.10;;;;;;5036178;28;20947;-74
2021/07/29 11:17:35;;;;;;;3.70;3.00;;;28.40;52.20;;;;;;5036136;28;20541;-74
2021/07/29 11:20:03;;;;;;;3.53;3.23;;;28.00;53.70;;;;;;5036571;28;20445;-74
2021/07/29 11:22:29;;;;;;;3.40;3.10;;;28.00;54.70;;;;;;5036711;28;20448;-74
2021/07/29 11:25:08;;;;;;;3.43;3.13;;;27.90;53.70;;;;;;5036610;28;20486;-74
2021/07/29 11:27:35;;;;;;;2.80;2.60;;;27.90;54.30;;;;;;5036180;28;20521;-74
2021/07/29 11:30:05;;;;;;;3.97;3.20;;;27.80;55.40;;;;;;5036280;28;20447;-74
2021/07/29 11:32:36;;;;;;;2.80;2.60;;;27.70;55.60;;;;;;5036364;28;20475;-74
2021/07/29 11:35:03;;;;;;;3.80;3.50;;;27.70;56.50;;;;;;5036270;28;20456;-74
2021/07/29 11:37:38;;;;;;;3.30;3.00;;;27.80;58.30;;;;;;5035777;28;20573;-74
2021/07/29 11:40:07;;;;;;;3.60;3.30;;;27.80;57.10;;;;;;5036050;28;20490;-74
2021/07/29 11:42:39;;;;;;;3.03;2.73;;;27.60;57.40;;;;;;5036190;28;20964;-74
2021/07/29 11:45:24;;;;;;;3.53;3.23;;;27.60;57.90;;;;;;5035858;28;20447;-74
2021/07/29 11:47:52;;;;;;;2.93;2.73;;;27.60;56.90;;;;;;5036474;28;20464;-75
2021/07/29 11:50:39;;;;;;;3.33;3.03;;;27.70;55.60;;;;;;5036253;28;20800;-74
2021/07/29 11:53:06;;;;;;;3.33;2.70;;;27.50;56.20;;;;;;5035949;28;20443;-74
2021/07/29 11:55:33;;;;;;;3.33;2.90;;;27.50;56.20;;;;;;5035547;28;20446;-74
2021/07/29 11:58:06;;;;;;;3.37;3.07;;;27.50;56.60;;;;;;5036118;28;20489;-74
2021/07/29 12:00:36;;;;;;;3.60;3.17;;;27.60;56.90;;;;;;5035761;28;20483;-74
2021/07/29 12:03:04;;;;;;;3.60;3.30;;;27.60;56.20;;;;;;5035616;28;20450;-75
2021/07/29 12:05:32;;;;;;;2.83;2.63;;;27.60;57.00;;;;;;5035388;28;20469;-75
2021/07/29 12:07:59;;;;;;;3.30;3.00;;;27.50;56.40;;;;;;5035123;28;20463;-75
2021/07/29 12:10:28;;;;;;;3.70;3.40;;;27.20;56.10;;;;;;5035388;28;20451;-75
2021/07/29 12:12:56;;;;;;;2.90;2.70;;;26.90;58.30;;;;;;5035830;28;20629;-75
2021/07/29 12:15:24;;;;;;;3.40;3.10;;;26.70;57.30;;;;;;5034968;28;20447;-74
2021/07/29 12:17:52;;;;;;;3.27;2.97;;;26.50;58.80;;;;;;5034984;28;20493;-74
2021/07/29 12:20:20;;;;;;;4.20;3.73;;;26.40;64.60;;;;;;5035454;28;20442;-74
2021/07/29 12:22:47;;;;;;;3.60;3.30;;;26.30;58.90;;;;;;5035447;28;20451;-74
2021/07/29 12:25:30;;;;;;;4.00;3.60;;;26.30;61.10;;;;;;5035086;28;20865;-74
2021/07/29 12:27:58;;;;;;;3.03;2.83;;;26.30;63.30;;;;;;5034946;28;20968;-74
2021/07/29 12:30:31;;;;;;;2.97;2.70;;;26.40;59.60;;;;;;5035196;28;20497;-74
2021/07/29 12:33:10;;;;;;;3.27;2.97;;;26.50;61.70;;;;;;5035167;28;20521;-76
2021/07/29 12:35:38;;;;;;;3.47;3.17;;;26.60;59.70;;;;;;5034776;28;20537;-76
2021/07/29 12:38:05;;;;;;;2.80;2.60;;;26.80;58.50;;;;;;5035618;28;20494;-76
2021/07/29 12:40:33;;;;;;;3.40;3.10;;;27.00;59.70;;;;;;5034618;28;20533;-77
2021/07/29 12:43:21;;;;;;;4.00;3.60;;;27.20;58.60;;;;;;5034903;28;20805;-76
2021/07/29 12:45:49;;;;;;;3.13;2.83;;;27.10;60.50;;;;;;5034815;28;20874;-76
2021/07/29 12:48:17;;;;;;;4.17;3.77;;;27.00;58.80;;;;;;5034694;28;20959;-75
2021/07/29 12:50:44;;;;;;;4.10;3.07;;;26.90;60.60;;;;;;5035089;28;20533;-76
2021/07/29 12:53:12;;;;;;;4.30;3.30;;;26.70;59.60;;;;;;5034645;28;20443;-76
2021/07/29 12:55:40;;;;;;;4.47;3.03;;;26.20;59.60;;;;;;5034382;28;20943;-74
2021/07/29 12:58:07;;;;;;;3.30;3.00;;;26.00;60.00;;;;;;5034493;28;20486;-76